sensor_id;sensor_type;location;lat;lon;timestamp;P1;durP1;ratioP1;P2;durP2;ratioP2
70052;SDS011;57398;52.032;4.376;2022-09-09T00:00:47;9.82;;;3.92;;
70052;SDS011;57398;52.032;4.376;2022-09-09T00:03:16;9.38;;;4.40;;
70052;SDS011;57398;52.032;4.376;2022-09-09T00:05:48;9.93;;;4.18;;
70052;SDS011;57398;52.032;4.376;2022-09-09T00:08:20;7.87;;;4.30;;
70052;SDS011;57398;52.032;4.376;2022-09-09T00:10:49;10.50;;;4.15;;
70052;SDS011;57398;52.032;4.376;2022-09-09T00:13:21;11.68;;;5.40;;
70052;SDS011;57398;52.032;4.376;2022-09-09T00:15:54;8.88;;;3.85;;
70052;SDS011;57398;52.032;4.376;2022-09-09T00:18:25;10.93;;;4.65;;
70052;SDS011;57398;52.032;4.376;2022-09-09T00:20:57;12.17;;;4.97;;
70052;SDS011;57398;52.032;4.376;2022-09-09T00:23:25;9.90;;;4.05;;
70052;SDS011;57398;52.032;4.376;2022-09-09T00:25:58;8.70;;;3.85;;
70052;SDS011;57398;52.032;4.376;2022-09-09T00:28:27;9.27;;;4.43;;
70052;SDS011;57398;52.032;4.376;2022-09-09T00:31:00;10.85;;;4.35;;
70052;SDS011;57398;52.032;4.376;2022-09-09T00:33:31;10.60;;;4.73;;
70052;SDS011;57398;52.032;4.376;2022-09-09T00:35:59;9.85;;;4.45;;
70052;SDS011;57398;52.032;4.376;2022-09-09T00:38:28;11.10;;;4.90;;
70052;SDS011;57398;52.032;4.376;2022-09-09T00:40:59;9.45;;;4.57;;
70052;SDS011;57398;52.032;4.376;2022-09-09T00:43:29;13.60;;;4.82;;
70052;SDS011;57398;52.032;4.376;2022-09-09T00:48:47;13.30;;;4.95;;
70052;SDS011;57398;52.032;4.376;2022-09-09T00:51:21;13.02;;;5.13;;
70052;SDS011;57398;52.032;4.376;2022-09-09T00:54:01;11.00;;;5.20;;
70052;SDS011;57398;52.032;4.376;2022-09-09T00:56:34;10.55;;;5.35;;
70052;SDS011;57398;52.032;4.376;2022-09-09T00:59:14;11.13;;;5.23;;
70052;SDS011;57398;52.032;4.376;2022-09-09T01:01:44;12.07;;;5.40;;
70052;SDS011;57398;52.032;4.376;2022-09-09T01:04:13;11.52;;;5.78;;
70052;SDS011;57398;52.032;4.376;2022-09-09T01:06:42;11.65;;;5.47;;
70052;SDS011;57398;52.032;4.376;2022-09-09T01:09:13;11.60;;;5.70;;
70052;SDS011;57398;52.032;4.376;2022-09-09T01:11:47;11.57;;;5.50;;
70052;SDS011;57398;52.032;4.376;2022-09-09T01:14:20;12.15;;;5.70;;
70052;SDS011;57398;52.032;4.376;2022-09-09T01:16:51;11.38;;;5.55;;
70052;SDS011;57398;52.032;4.376;2022-09-09T01:19:24;12.10;;;5.28;;
70052;SDS011;57398;52.032;4.376;2022-09-09T01:22:00;11.95;;;5.45;;
70052;SDS011;57398;52.032;4.376;2022-09-09T01:24:31;10.23;;;5.00;;
70052;SDS011;57398;52.032;4.376;2022-09-09T01:27:02;13.73;;;5.70;;
70052;SDS011;57398;52.032;4.376;2022-09-09T01:29:31;10.35;;;5.18;;
70052;SDS011;57398;52.032;4.376;2022-09-09T01:31:58;13.18;;;5.40;;
70052;SDS011;57398;52.032;4.376;2022-09-09T01:34:27;10.23;;;4.88;;
70052;SDS011;57398;52.032;4.376;2022-09-09T01:36:57;10.60;;;4.97;;
70052;SDS011;57398;52.032;4.376;2022-09-09T01:39:25;10.25;;;4.45;;
70052;SDS011;57398;52.032;4.376;2022-09-09T01:41:53;9.55;;;4.22;;
70052;SDS011;57398;52.032;4.376;2022-09-09T01:44:22;9.10;;;4.72;;
70052;SDS011;57398;52.032;4.376;2022-09-09T01:46:49;11.50;;;4.53;;
70052;SDS011;57398;52.032;4.376;2022-09-09T01:49:17;8.70;;;4.10;;
70052;SDS011;57398;52.032;4.376;2022-09-09T01:51:45;8.50;;;4.00;;
70052;SDS011;57398;52.032;4.376;2022-09-09T01:54:13;9.38;;;3.83;;
70052;SDS011;57398;52.032;4.376;2022-09-09T01:56:43;9.05;;;3.33;;
70052;SDS011;57398;52.032;4.376;2022-09-09T01:59:18;11.13;;;3.40;;
70052;SDS011;57398;52.032;4.376;2022-09-09T02:01:56;8.87;;;3.50;;
70052;SDS011;57398;52.032;4.376;2022-09-09T02:04:36;9.45;;;3.83;;
70052;SDS011;57398;52.032;4.376;2022-09-09T02:07:06;8.73;;;3.45;;
70052;SDS011;57398;52.032;4.376;2022-09-09T02:09:35;9.45;;;3.75;;
70052;SDS011;57398;52.032;4.376;2022-09-09T02:12:04;8.63;;;3.00;;
70052;SDS011;57398;52.032;4.376;2022-09-09T02:14:36;8.20;;;2.80;;
70052;SDS011;57398;52.032;4.376;2022-09-09T02:17:08;6.35;;;2.47;;
70052;SDS011;57398;52.032;4.376;2022-09-09T02:19:36;7.07;;;2.60;;
70052;SDS011;57398;52.032;4.376;2022-09-09T02:22:04;7.85;;;2.40;;
70052;SDS011;57398;52.032;4.376;2022-09-09T02:24:32;5.97;;;1.73;;
70052;SDS011;57398;52.032;4.376;2022-09-09T02:27:01;5.83;;;1.87;;
70052;SDS011;57398;52.032;4.376;2022-09-09T02:29:30;8.48;;;1.98;;
70052;SDS011;57398;52.032;4.376;2022-09-09T02:32:00;6.85;;;2.10;;
70052;SDS011;57398;52.032;4.376;2022-09-09T02:34:30;4.97;;;1.75;;
70052;SDS011;57398;52.032;4.376;2022-09-09T02:36:58;8.65;;;1.90;;
70052;SDS011;57398;52.032;4.376;2022-09-09T02:39:26;5.97;;;1.80;;
70052;SDS011;57398;52.032;4.376;2022-09-09T02:41:53;5.28;;;1.60;;
70052;SDS011;57398;52.032;4.376;2022-09-09T02:44:20;6.10;;;1.67;;
70052;SDS011;57398;52.032;4.376;2022-09-09T02:46:59;6.88;;;1.70;;
70052;SDS011;57398;52.032;4.376;2022-09-09T02:49:33;6.30;;;1.65;;
70052;SDS011;57398;52.032;4.376;2022-09-09T02:52:04;6.60;;;2.07;;
70052;SDS011;57398;52.032;4.376;2022-09-09T02:54:33;7.32;;;2.00;;
70052;SDS011;57398;52.032;4.376;2022-09-09T02:57:04;4.60;;;1.80;;
70052;SDS011;57398;52.032;4.376;2022-09-09T02:59:33;5.78;;;2.00;;
70052;SDS011;57398;52.032;4.376;2022-09-09T03:02:01;5.63;;;1.70;;
70052;SDS011;57398;52.032;4.376;2022-09-09T03:04:29;4.77;;;1.70;;
70052;SDS011;57398;52.032;4.376;2022-09-09T03:06:58;4.80;;;1.50;;
70052;SDS011;57398;52.032;4.376;2022-09-09T03:09:25;7.18;;;1.85;;
70052;SDS011;57398;52.032;4.376;2022-09-09T03:11:53;7.05;;;1.55;;
70052;SDS011;57398;52.032;4.376;2022-09-09T03:14:21;6.07;;;1.88;;
70052;SDS011;57398;52.032;4.376;2022-09-09T03:16:51;4.70;;;1.87;;
70052;SDS011;57398;52.032;4.376;2022-09-09T03:19:19;4.90;;;1.90;;
70052;SDS011;57398;52.032;4.376;2022-09-09T03:21:46;5.85;;;2.10;;
70052;SDS011;57398;52.032;4.376;2022-09-09T03:24:15;6.82;;;2.28;;
70052;SDS011;57398;52.032;4.376;2022-09-09T03:26:42;6.70;;;1.90;;
70052;SDS011;57398;52.032;4.376;2022-09-09T03:29:11;4.97;;;2.00;;
70052;SDS011;57398;52.032;4.376;2022-09-09T03:31:39;6.47;;;2.50;;
70052;SDS011;57398;52.032;4.376;2022-09-09T03:34:07;6.32;;;2.05;;
70052;SDS011;57398;52.032;4.376;2022-09-09T03:36:34;7.78;;;2.10;;
70052;SDS011;57398;52.032;4.376;2022-09-09T03:39:01;6.03;;;2.30;;
70052;SDS011;57398;52.032;4.376;2022-09-09T03:41:31;7.67;;;2.10;;
70052;SDS011;57398;52.032;4.376;2022-09-09T03:43:58;8.73;;;2.05;;
70052;SDS011;57398;52.032;4.376;2022-09-09T03:46:26;5.97;;;2.17;;
70052;SDS011;57398;52.032;4.376;2022-09-09T03:48:53;6.07;;;2.03;;
70052;SDS011;57398;52.032;4.376;2022-09-09T03:51:21;6.85;;;2.05;;
70052;SDS011;57398;52.032;4.376;2022-09-09T03:53:48;5.80;;;1.60;;
70052;SDS011;57398;52.032;4.376;2022-09-09T03:56:16;5.97;;;1.95;;
70052;SDS011;57398;52.032;4.376;2022-09-09T03:58:45;5.90;;;1.95;;
70052;SDS011;57398;52.032;4.376;2022-09-09T04:01:12;7.47;;;1.77;;
70052;SDS011;57398;52.032;4.376;2022-09-09T04:03:40;8.27;;;1.70;;
70052;SDS011;57398;52.032;4.376;2022-09-09T04:06:08;6.50;;;1.67;;
70052;SDS011;57398;52.032;4.376;2022-09-09T04:08:37;6.15;;;2.05;;
70052;SDS011;57398;52.032;4.376;2022-09-09T04:11:05;6.32;;;1.90;;
70052;SDS011;57398;52.032;4.376;2022-09-09T04:13:33;9.90;;;2.15;;
70052;SDS011;57398;52.032;4.376;2022-09-09T04:16:03;7.53;;;1.92;;
70052;SDS011;57398;52.032;4.376;2022-09-09T04:18:31;6.17;;;1.83;;
70052;SDS011;57398;52.032;4.376;2022-09-09T04:20:58;7.13;;;2.10;;
70052;SDS011;57398;52.032;4.376;2022-09-09T04:23:26;5.90;;;1.83;;
70052;SDS011;57398;52.032;4.376;2022-09-09T04:25:55;6.93;;;2.10;;
70052;SDS011;57398;52.032;4.376;2022-09-09T04:28:23;7.82;;;2.08;;
70052;SDS011;57398;52.032;4.376;2022-09-09T04:30:50;6.80;;;1.67;;
70052;SDS011;57398;52.032;4.376;2022-09-09T04:33:20;5.90;;;2.00;;
70052;SDS011;57398;52.032;4.376;2022-09-09T04:35:48;5.57;;;1.88;;
70052;SDS011;57398;52.032;4.376;2022-09-09T04:38:16;7.65;;;2.08;;
70052;SDS011;57398;52.032;4.376;2022-09-09T04:40:45;5.28;;;1.85;;
70052;SDS011;57398;52.032;4.376;2022-09-09T04:43:13;6.87;;;2.17;;
70052;SDS011;57398;52.032;4.376;2022-09-09T04:45:41;4.95;;;1.98;;
70052;SDS011;57398;52.032;4.376;2022-09-09T04:48:09;7.10;;;2.28;;
70052;SDS011;57398;52.032;4.376;2022-09-09T04:50:38;6.03;;;2.08;;
70052;SDS011;57398;52.032;4.376;2022-09-09T04:53:06;7.43;;;2.03;;
70052;SDS011;57398;52.032;4.376;2022-09-09T04:55:34;7.47;;;2.37;;
70052;SDS011;57398;52.032;4.376;2022-09-09T04:58:02;7.47;;;2.10;;
70052;SDS011;57398;52.032;4.376;2022-09-09T05:00:30;6.32;;;1.98;;
70052;SDS011;57398;52.032;4.376;2022-09-09T05:02:57;8.07;;;2.40;;
70052;SDS011;57398;52.032;4.376;2022-09-09T05:05:25;7.40;;;1.80;;
70052;SDS011;57398;52.032;4.376;2022-09-09T05:07:54;5.20;;;2.00;;
70052;SDS011;57398;52.032;4.376;2022-09-09T05:10:21;11.20;;;2.40;;
70052;SDS011;57398;52.032;4.376;2022-09-09T05:12:52;8.18;;;2.22;;
70052;SDS011;57398;52.032;4.376;2022-09-09T05:15:19;9.25;;;2.35;;
70052;SDS011;57398;52.032;4.376;2022-09-09T05:17:47;7.93;;;2.92;;
70052;SDS011;57398;52.032;4.376;2022-09-09T05:20:15;10.20;;;3.00;;
70052;SDS011;57398;52.032;4.376;2022-09-09T05:22:42;7.22;;;2.75;;
70052;SDS011;57398;52.032;4.376;2022-09-09T05:25:11;6.88;;;2.70;;
70052;SDS011;57398;52.032;4.376;2022-09-09T05:27:38;6.97;;;2.88;;
70052;SDS011;57398;52.032;4.376;2022-09-09T05:30:06;6.47;;;2.85;;
70052;SDS011;57398;52.032;4.376;2022-09-09T05:32:34;7.60;;;2.53;;
70052;SDS011;57398;52.032;4.376;2022-09-09T05:35:02;6.70;;;2.67;;
70052;SDS011;57398;52.032;4.376;2022-09-09T05:37:30;7.93;;;2.47;;
70052;SDS011;57398;52.032;4.376;2022-09-09T05:39:57;7.07;;;2.38;;
70052;SDS011;57398;52.032;4.376;2022-09-09T05:42:28;8.88;;;2.90;;
70052;SDS011;57398;52.032;4.376;2022-09-09T05:44:56;7.57;;;2.40;;
70052;SDS011;57398;52.032;4.376;2022-09-09T05:47:24;8.23;;;2.33;;
70052;SDS011;57398;52.032;4.376;2022-09-09T05:49:53;12.25;;;2.72;;
70052;SDS011;57398;52.032;4.376;2022-09-09T05:52:21;6.72;;;2.47;;
70052;SDS011;57398;52.032;4.376;2022-09-09T05:54:49;8.02;;;2.45;;
70052;SDS011;57398;52.032;4.376;2022-09-09T05:57:17;6.83;;;2.23;;
70052;SDS011;57398;52.032;4.376;2022-09-09T05:59:46;7.45;;;2.45;;
70052;SDS011;57398;52.032;4.376;2022-09-09T06:02:14;6.82;;;2.47;;
70052;SDS011;57398;52.032;4.376;2022-09-09T06:04:41;8.93;;;2.50;;
70052;SDS011;57398;52.032;4.376;2022-09-09T06:07:09;6.93;;;2.50;;
70052;SDS011;57398;52.032;4.376;2022-09-09T06:09:36;5.07;;;2.23;;
70052;SDS011;57398;52.032;4.376;2022-09-09T06:12:04;7.93;;;2.58;;
70052;SDS011;57398;52.032;4.376;2022-09-09T06:14:31;7.90;;;2.63;;
70052;SDS011;57398;52.032;4.376;2022-09-09T06:17:00;7.30;;;2.30;;
70052;SDS011;57398;52.032;4.376;2022-09-09T06:19:28;9.82;;;3.05;;
70052;SDS011;57398;52.032;4.376;2022-09-09T06:21:56;5.77;;;2.47;;
70052;SDS011;57398;52.032;4.376;2022-09-09T06:24:24;9.80;;;2.78;;
70052;SDS011;57398;52.032;4.376;2022-09-09T06:26:52;8.70;;;3.00;;
70052;SDS011;57398;52.032;4.376;2022-09-09T06:29:20;7.82;;;3.20;;
70052;SDS011;57398;52.032;4.376;2022-09-09T06:31:47;9.73;;;2.95;;
70052;SDS011;57398;52.032;4.376;2022-09-09T06:34:16;7.03;;;2.90;;
70052;SDS011;57398;52.032;4.376;2022-09-09T06:36:43;7.05;;;3.10;;
70052;SDS011;57398;52.032;4.376;2022-09-09T06:39:11;6.18;;;2.75;;
70052;SDS011;57398;52.032;4.376;2022-09-09T06:41:41;8.65;;;2.97;;
70052;SDS011;57398;52.032;4.376;2022-09-09T06:44:09;8.98;;;3.10;;
70052;SDS011;57398;52.032;4.376;2022-09-09T06:46:37;9.60;;;2.87;;
70052;SDS011;57398;52.032;4.376;2022-09-09T06:49:05;8.27;;;2.80;;
70052;SDS011;57398;52.032;4.376;2022-09-09T06:51:35;7.22;;;3.38;;
70052;SDS011;57398;52.032;4.376;2022-09-09T06:54:04;8.68;;;3.33;;
70052;SDS011;57398;52.032;4.376;2022-09-09T06:56:32;10.18;;;3.33;;
70052;SDS011;57398;52.032;4.376;2022-09-09T06:59:01;10.87;;;3.20;;
70052;SDS011;57398;52.032;4.376;2022-09-09T07:01:30;8.77;;;3.42;;
70052;SDS011;57398;52.032;4.376;2022-09-09T07:04:01;10.65;;;3.13;;
70052;SDS011;57398;52.032;4.376;2022-09-09T07:06:30;9.70;;;3.17;;
70052;SDS011;57398;52.032;4.376;2022-09-09T07:09:00;7.75;;;3.22;;
70052;SDS011;57398;52.032;4.376;2022-09-09T07:11:29;7.45;;;3.58;;
70052;SDS011;57398;52.032;4.376;2022-09-09T07:13:57;8.10;;;3.30;;
70052;SDS011;57398;52.032;4.376;2022-09-09T07:16:25;9.85;;;3.65;;
70052;SDS011;57398;52.032;4.376;2022-09-09T07:18:53;10.15;;;3.40;;
70052;SDS011;57398;52.032;4.376;2022-09-09T07:21:24;7.63;;;3.33;;
70052;SDS011;57398;52.032;4.376;2022-09-09T07:23:52;7.63;;;2.95;;
70052;SDS011;57398;52.032;4.376;2022-09-09T07:26:22;8.50;;;3.40;;
70052;SDS011;57398;52.032;4.376;2022-09-09T07:28:50;9.13;;;3.55;;
70052;SDS011;57398;52.032;4.376;2022-09-09T07:31:18;8.70;;;3.67;;
70052;SDS011;57398;52.032;4.376;2022-09-09T07:33:46;10.00;;;3.33;;
70052;SDS011;57398;52.032;4.376;2022-09-09T07:36:15;9.52;;;3.75;;
70052;SDS011;57398;52.032;4.376;2022-09-09T07:38:44;9.70;;;3.53;;
70052;SDS011;57398;52.032;4.376;2022-09-09T07:41:12;10.30;;;3.65;;
70052;SDS011;57398;52.032;4.376;2022-09-09T07:43:43;8.90;;;3.60;;
70052;SDS011;57398;52.032;4.376;2022-09-09T07:46:11;9.77;;;3.38;;
70052;SDS011;57398;52.032;4.376;2022-09-09T07:48:43;8.43;;;3.50;;
70052;SDS011;57398;52.032;4.376;2022-09-09T07:51:11;8.50;;;3.57;;
70052;SDS011;57398;52.032;4.376;2022-09-09T07:53:39;12.15;;;3.72;;
70052;SDS011;57398;52.032;4.376;2022-09-09T07:56:08;8.75;;;3.88;;
70052;SDS011;57398;52.032;4.376;2022-09-09T07:58:36;8.25;;;3.42;;
70052;SDS011;57398;52.032;4.376;2022-09-09T08:01:09;9.13;;;3.20;;
70052;SDS011;57398;52.032;4.376;2022-09-09T08:03:37;9.93;;;3.37;;
70052;SDS011;57398;52.032;4.376;2022-09-09T08:06:06;8.10;;;3.47;;
70052;SDS011;57398;52.032;4.376;2022-09-09T08:08:34;10.32;;;3.28;;
70052;SDS011;57398;52.032;4.376;2022-09-09T08:11:03;8.77;;;3.20;;
70052;SDS011;57398;52.032;4.376;2022-09-09T08:13:30;9.80;;;3.50;;
70052;SDS011;57398;52.032;4.376;2022-09-09T08:16:09;8.93;;;3.07;;
70052;SDS011;57398;52.032;4.376;2022-09-09T08:18:37;8.45;;;3.28;;
70052;SDS011;57398;52.032;4.376;2022-09-09T08:21:06;8.55;;;3.05;;
70052;SDS011;57398;52.032;4.376;2022-09-09T08:23:34;9.98;;;3.42;;
70052;SDS011;57398;52.032;4.376;2022-09-09T08:26:05;8.88;;;3.92;;
70052;SDS011;57398;52.032;4.376;2022-09-09T08:28:33;8.57;;;3.30;;
70052;SDS011;57398;52.032;4.376;2022-09-09T08:31:11;11.07;;;3.45;;
70052;SDS011;57398;52.032;4.376;2022-09-09T08:33:39;6.75;;;3.05;;
70052;SDS011;57398;52.032;4.376;2022-09-09T08:36:09;9.93;;;3.33;;
70052;SDS011;57398;52.032;4.376;2022-09-09T08:38:37;9.65;;;3.08;;
70052;SDS011;57398;52.032;4.376;2022-09-09T08:41:12;7.97;;;2.83;;
70052;SDS011;57398;52.032;4.376;2022-09-09T08:43:41;10.20;;;3.20;;
70052;SDS011;57398;52.032;4.376;2022-09-09T08:46:12;10.25;;;3.60;;
70052;SDS011;57398;52.032;4.376;2022-09-09T08:48:46;6.95;;;3.17;;
70052;SDS011;57398;52.032;4.376;2022-09-09T08:51:18;8.95;;;2.92;;
70052;SDS011;57398;52.032;4.376;2022-09-09T08:53:47;10.03;;;2.90;;
70052;SDS011;57398;52.032;4.376;2022-09-09T08:56:16;8.70;;;2.92;;
70052;SDS011;57398;52.032;4.376;2022-09-09T08:58:45;7.25;;;2.70;;
70052;SDS011;57398;52.032;4.376;2022-09-09T09:01:18;7.88;;;2.80;;
70052;SDS011;57398;52.032;4.376;2022-09-09T09:03:48;7.57;;;2.70;;
70052;SDS011;57398;52.032;4.376;2022-09-09T09:06:23;8.13;;;2.57;;
70052;SDS011;57398;52.032;4.376;2022-09-09T09:08:55;7.38;;;2.85;;
70052;SDS011;57398;52.032;4.376;2022-09-09T09:11:27;7.70;;;2.88;;
70052;SDS011;57398;52.032;4.376;2022-09-09T09:13:54;7.00;;;2.70;;
70052;SDS011;57398;52.032;4.376;2022-09-09T09:16:26;6.70;;;3.10;;
70052;SDS011;57398;52.032;4.376;2022-09-09T09:18:58;7.40;;;2.70;;
70052;SDS011;57398;52.032;4.376;2022-09-09T09:21:28;8.35;;;2.70;;
70052;SDS011;57398;52.032;4.376;2022-09-09T09:23:57;6.68;;;2.53;;
70052;SDS011;57398;52.032;4.376;2022-09-09T09:26:25;6.03;;;2.53;;
70052;SDS011;57398;52.032;4.376;2022-09-09T09:28:54;9.57;;;2.90;;
70052;SDS011;57398;52.032;4.376;2022-09-09T09:31:24;6.17;;;2.67;;
70052;SDS011;57398;52.032;4.376;2022-09-09T09:33:53;7.82;;;2.55;;
70052;SDS011;57398;52.032;4.376;2022-09-09T09:36:21;6.80;;;2.60;;
70052;SDS011;57398;52.032;4.376;2022-09-09T09:38:52;8.40;;;2.60;;
70052;SDS011;57398;52.032;4.376;2022-09-09T09:41:40;7.53;;;2.63;;
70052;SDS011;57398;52.032;4.376;2022-09-09T09:44:20;7.37;;;2.70;;
70052;SDS011;57398;52.032;4.376;2022-09-09T09:46:50;7.68;;;2.63;;
70052;SDS011;57398;52.032;4.376;2022-09-09T09:49:17;7.07;;;2.70;;
70052;SDS011;57398;52.032;4.376;2022-09-09T09:51:45;8.13;;;2.90;;
70052;SDS011;57398;52.032;4.376;2022-09-09T09:54:17;6.20;;;2.60;;
70052;SDS011;57398;52.032;4.376;2022-09-09T09:56:47;8.07;;;3.00;;
70052;SDS011;57398;52.032;4.376;2022-09-09T09:59:22;10.25;;;3.15;;
70052;SDS011;57398;52.032;4.376;2022-09-09T10:02:16;8.27;;;2.90;;
70052;SDS011;57398;52.032;4.376;2022-09-09T10:04:44;8.80;;;2.97;;
70052;SDS011;57398;52.032;4.376;2022-09-09T10:07:12;8.30;;;3.42;;
70052;SDS011;57398;52.032;4.376;2022-09-09T10:09:40;7.57;;;3.10;;
70052;SDS011;57398;52.032;4.376;2022-09-09T10:12:11;8.05;;;2.90;;
70052;SDS011;57398;52.032;4.376;2022-09-09T10:14:41;7.90;;;2.53;;
70052;SDS011;57398;52.032;4.376;2022-09-09T10:17:15;8.20;;;3.08;;
70052;SDS011;57398;52.032;4.376;2022-09-09T10:19:49;8.15;;;2.97;;
70052;SDS011;57398;52.032;4.376;2022-09-09T10:22:24;7.37;;;3.43;;
70052;SDS011;57398;52.032;4.376;2022-09-09T10:25:05;7.85;;;3.05;;
70052;SDS011;57398;52.032;4.376;2022-09-09T10:27:41;9.15;;;3.30;;
70052;SDS011;57398;52.032;4.376;2022-09-09T10:30:14;8.68;;;3.55;;
70052;SDS011;57398;52.032;4.376;2022-09-09T10:32:47;7.95;;;3.30;;
70052;SDS011;57398;52.032;4.376;2022-09-09T10:35:24;9.30;;;3.33;;
70052;SDS011;57398;52.032;4.376;2022-09-09T10:38:03;6.90;;;2.72;;
70052;SDS011;57398;52.032;4.376;2022-09-09T10:40:38;10.45;;;3.80;;
70052;SDS011;57398;52.032;4.376;2022-09-09T10:43:11;6.78;;;3.08;;
70052;SDS011;57398;52.032;4.376;2022-09-09T10:45:43;8.27;;;3.53;;
70052;SDS011;57398;52.032;4.376;2022-09-09T10:48:17;7.50;;;3.03;;
70052;SDS011;57398;52.032;4.376;2022-09-09T10:50:51;7.40;;;3.15;;
70052;SDS011;57398;52.032;4.376;2022-09-09T10:53:37;7.03;;;3.50;;
70052;SDS011;57398;52.032;4.376;2022-09-09T10:56:08;8.38;;;3.80;;
70052;SDS011;57398;52.032;4.376;2022-09-09T10:58:38;8.98;;;3.47;;
70052;SDS011;57398;52.032;4.376;2022-09-09T11:01:10;8.00;;;3.40;;
70052;SDS011;57398;52.032;4.376;2022-09-09T11:03:42;8.70;;;4.00;;
70052;SDS011;57398;52.032;4.376;2022-09-09T11:06:12;7.90;;;3.80;;
70052;SDS011;57398;52.032;4.376;2022-09-09T11:08:40;8.77;;;3.65;;
70052;SDS011;57398;52.032;4.376;2022-09-09T11:11:09;8.13;;;3.42;;
70052;SDS011;57398;52.032;4.376;2022-09-09T11:13:40;6.57;;;3.33;;
70052;SDS011;57398;52.032;4.376;2022-09-09T11:16:14;8.93;;;3.60;;
70052;SDS011;57398;52.032;4.376;2022-09-09T11:18:43;9.23;;;3.63;;
70052;SDS011;57398;52.032;4.376;2022-09-09T11:21:15;7.00;;;3.72;;
70052;SDS011;57398;52.032;4.376;2022-09-09T11:23:43;8.43;;;4.18;;
70052;SDS011;57398;52.032;4.376;2022-09-09T11:26:14;6.73;;;3.70;;
70052;SDS011;57398;52.032;4.376;2022-09-09T11:28:46;8.20;;;3.90;;
70052;SDS011;57398;52.032;4.376;2022-09-09T11:31:26;8.60;;;4.45;;
70052;SDS011;57398;52.032;4.376;2022-09-09T11:34:07;8.73;;;4.45;;
70052;SDS011;57398;52.032;4.376;2022-09-09T11:39:27;10.17;;;4.43;;
70052;SDS011;57398;52.032;4.376;2022-09-09T11:42:05;10.77;;;5.00;;
70052;SDS011;57398;52.032;4.376;2022-09-09T11:44:33;9.68;;;4.53;;
70052;SDS011;57398;52.032;4.376;2022-09-09T11:47:00;10.25;;;4.47;;
70052;SDS011;57398;52.032;4.376;2022-09-09T11:49:28;8.43;;;4.25;;
70052;SDS011;57398;52.032;4.376;2022-09-09T11:51:57;8.80;;;4.63;;
70052;SDS011;57398;52.032;4.376;2022-09-09T11:54:32;9.75;;;4.40;;
70052;SDS011;57398;52.032;4.376;2022-09-09T11:57:14;6.93;;;3.90;;
70052;SDS011;57398;52.032;4.376;2022-09-09T11:59:49;7.35;;;3.90;;
70052;SDS011;57398;52.032;4.376;2022-09-09T12:02:18;7.07;;;3.70;;
70052;SDS011;57398;52.032;4.376;2022-09-09T12:04:49;7.37;;;3.57;;
70052;SDS011;57398;52.032;4.376;2022-09-09T12:07:24;5.97;;;2.78;;
70052;SDS011;57398;52.032;4.376;2022-09-09T12:09:55;7.68;;;3.10;;
70052;SDS011;57398;52.032;4.376;2022-09-09T12:12:25;6.60;;;3.20;;
70052;SDS011;57398;52.032;4.376;2022-09-09T12:14:57;7.38;;;3.08;;
70052;SDS011;57398;52.032;4.376;2022-09-09T12:17:26;6.33;;;2.60;;
70052;SDS011;57398;52.032;4.376;2022-09-09T12:20:01;6.53;;;2.78;;
70052;SDS011;57398;52.032;4.376;2022-09-09T12:22:33;6.10;;;2.80;;
70052;SDS011;57398;52.032;4.376;2022-09-09T12:25:06;6.28;;;2.80;;
70052;SDS011;57398;52.032;4.376;2022-09-09T12:27:40;6.13;;;3.13;;
70052;SDS011;57398;52.032;4.376;2022-09-09T12:30:10;6.20;;;3.10;;
70052;SDS011;57398;52.032;4.376;2022-09-09T12:32:39;5.88;;;3.03;;
70052;SDS011;57398;52.032;4.376;2022-09-09T12:35:09;7.80;;;3.10;;
70052;SDS011;57398;52.032;4.376;2022-09-09T12:37:38;6.95;;;3.20;;
70052;SDS011;57398;52.032;4.376;2022-09-09T12:40:18;6.63;;;3.00;;
70052;SDS011;57398;52.032;4.376;2022-09-09T12:42:46;6.40;;;3.13;;
70052;SDS011;57398;52.032;4.376;2022-09-09T12:45:17;7.30;;;2.60;;
70052;SDS011;57398;52.032;4.376;2022-09-09T12:47:45;6.13;;;2.88;;
70052;SDS011;57398;52.032;4.376;2022-09-09T12:50:17;6.82;;;2.85;;
70052;SDS011;57398;52.032;4.376;2022-09-09T12:52:45;5.55;;;2.60;;
70052;SDS011;57398;52.032;4.376;2022-09-09T12:55:17;6.50;;;2.50;;
70052;SDS011;57398;52.032;4.376;2022-09-09T12:57:45;5.18;;;2.28;;
70052;SDS011;57398;52.032;4.376;2022-09-09T13:00:14;6.70;;;2.40;;
70052;SDS011;57398;52.032;4.376;2022-09-09T13:02:50;4.18;;;2.20;;
70052;SDS011;57398;52.032;4.376;2022-09-09T13:05:18;7.53;;;2.53;;
70052;SDS011;57398;52.032;4.376;2022-09-09T13:07:46;5.13;;;2.30;;
70052;SDS011;57398;52.032;4.376;2022-09-09T13:10:14;6.15;;;2.20;;
70052;SDS011;57398;52.032;4.376;2022-09-09T13:13:02;5.68;;;2.10;;
70052;SDS011;57398;52.032;4.376;2022-09-09T13:15:31;5.78;;;2.42;;
70052;SDS011;57398;52.032;4.376;2022-09-09T13:17:59;5.28;;;2.20;;
70052;SDS011;57398;52.032;4.376;2022-09-09T13:20:28;5.73;;;2.53;;
70052;SDS011;57398;52.032;4.376;2022-09-09T13:22:57;6.60;;;2.38;;
70052;SDS011;57398;52.032;4.376;2022-09-09T13:25:25;5.53;;;2.28;;
70052;SDS011;57398;52.032;4.376;2022-09-09T13:27:53;5.63;;;2.30;;
70052;SDS011;57398;52.032;4.376;2022-09-09T13:30:23;5.35;;;2.20;;
70052;SDS011;57398;52.032;4.376;2022-09-09T13:32:59;5.20;;;2.27;;
70052;SDS011;57398;52.032;4.376;2022-09-09T13:35:28;4.63;;;2.03;;
70052;SDS011;57398;52.032;4.376;2022-09-09T13:37:55;3.53;;;1.50;;
70052;SDS011;57398;52.032;4.376;2022-09-09T13:40:23;3.70;;;1.30;;
70052;SDS011;57398;52.032;4.376;2022-09-09T13:42:51;3.22;;;0.90;;
70052;SDS011;57398;52.032;4.376;2022-09-09T13:45:19;2.73;;;0.70;;
70052;SDS011;57398;52.032;4.376;2022-09-09T13:47:49;3.15;;;1.05;;
70052;SDS011;57398;52.032;4.376;2022-09-09T13:50:19;3.30;;;1.00;;
70052;SDS011;57398;52.032;4.376;2022-09-09T13:52:47;3.72;;;0.77;;
70052;SDS011;57398;52.032;4.376;2022-09-09T13:55:15;3.72;;;0.85;;
70052;SDS011;57398;52.032;4.376;2022-09-09T13:57:49;3.67;;;1.00;;
70052;SDS011;57398;52.032;4.376;2022-09-09T14:00:17;4.57;;;1.27;;
70052;SDS011;57398;52.032;4.376;2022-09-09T14:02:44;4.57;;;1.50;;
70052;SDS011;57398;52.032;4.376;2022-09-09T14:05:13;4.78;;;1.30;;
70052;SDS011;57398;52.032;4.376;2022-09-09T14:07:41;4.75;;;1.40;;
70052;SDS011;57398;52.032;4.376;2022-09-09T14:10:09;4.27;;;1.30;;
70052;SDS011;57398;52.032;4.376;2022-09-09T14:12:36;4.97;;;1.42;;
70052;SDS011;57398;52.032;4.376;2022-09-09T14:15:04;4.85;;;1.63;;
70052;SDS011;57398;52.032;4.376;2022-09-09T14:17:32;6.70;;;1.70;;
70052;SDS011;57398;52.032;4.376;2022-09-09T14:20:02;6.70;;;1.95;;
70052;SDS011;57398;52.032;4.376;2022-09-09T14:22:31;6.73;;;1.97;;
70052;SDS011;57398;52.032;4.376;2022-09-09T14:24:58;6.20;;;1.73;;
70052;SDS011;57398;52.032;4.376;2022-09-09T14:27:26;5.57;;;1.90;;
70052;SDS011;57398;52.032;4.376;2022-09-09T14:29:53;5.53;;;1.85;;
70052;SDS011;57398;52.032;4.376;2022-09-09T14:32:21;5.65;;;1.88;;
70052;SDS011;57398;52.032;4.376;2022-09-09T14:34:48;5.37;;;1.70;;
70052;SDS011;57398;52.032;4.376;2022-09-09T14:37:16;3.75;;;1.25;;
70052;SDS011;57398;52.032;4.376;2022-09-09T14:39:44;5.65;;;1.55;;
70052;SDS011;57398;52.032;4.376;2022-09-09T14:42:13;5.25;;;1.60;;
70052;SDS011;57398;52.032;4.376;2022-09-09T14:44:40;4.60;;;1.40;;
70052;SDS011;57398;52.032;4.376;2022-09-09T14:47:08;4.93;;;1.20;;
70052;SDS011;57398;52.032;4.376;2022-09-09T14:49:35;7.57;;;1.38;;
70052;SDS011;57398;52.032;4.376;2022-09-09T14:52:03;8.95;;;1.65;;
70052;SDS011;57398;52.032;4.376;2022-09-09T14:54:30;6.60;;;1.60;;
70052;SDS011;57398;52.032;4.376;2022-09-09T14:56:59;7.38;;;1.60;;
70052;SDS011;57398;52.032;4.376;2022-09-09T14:59:26;6.53;;;1.53;;
70052;SDS011;57398;52.032;4.376;2022-09-09T15:01:54;5.20;;;1.58;;
70052;SDS011;57398;52.032;4.376;2022-09-09T15:04:22;5.70;;;1.73;;
70052;SDS011;57398;52.032;4.376;2022-09-09T15:06:50;7.82;;;1.90;;